Time;durP1;ratioP1;P1;durP2;ratioP2;P2;SDS_P1;SDS_P2;PMS_P1;PMS_P2;Temp;Humidity;BMP_temperature;BMP_pressure;BME280_temperature;BME280_humidity;BME280_pressure;Samples;Min_cycle;Max_cycle;Signal;HPM_P1;HPM_P2
2022/06/15 00:08:59;;;;;;;14.38;9.50;;;12.50;99.90;;;;;;21054003;28;20089;-58
2022/06/15 00:19:04;;;;;;;11.15;9.15;;;12.50;99.90;;;;;;21046677;28;20040;-57
2022/06/15 00:29:06;;;;;;;14.57;10.68;;;12.50;99.90;;;;;;21049411;28;20178;-58
2022/06/15 00:39:10;;;;;;;11.75;8.05;;;12.60;99.90;;;;;;20985452;28;20044;-58
2022/06/15 00:49:30;;;;;;;10.98;8.15;;;12.60;99.90;;;;;;20984735;28;20047;-58
2022/06/15 00:59:58;;;;;;;16.37;8.30;;;12.90;99.90;;;;;;20984488;28;20106;-58
2022/06/15 01:10:22;;;;;;;9.40;6.63;;;13.20;99.90;;;;;;21023862;28;20470;-58
2022/06/15 01:20:40;;;;;;;8.95;5.95;;;13.40;99.90;;;;;;21033909;28;20093;-58
2022/06/15 01:30:52;;;;;;;8.77;6.70;;;13.40;99.90;;;;;;21050067;28;20044;-50
2022/06/15 01:41:15;;;;;;;12.50;7.57;;;13.40;99.90;;;;;;21049629;28;20451;-58
2022/06/15 01:51:22;;;;;;;9.02;6.80;;;13.30;99.90;;;;;;21033338;28;20391;-58
2022/06/15 02:01:27;;;;;;;12.23;8.68;;;13.10;99.90;;;;;;20995111;28;20110;-58
2022/06/15 02:11:37;;;;;;;12.80;8.20;;;13.00;99.90;;;;;;20980358;28;20028;-59
2022/06/15 02:21:48;;;;;;;12.52;9.15;;;12.90;99.90;;;;;;20979523;28;20083;-50
2022/06/15 02:31:55;;;;;;;11.98;8.50;;;12.70;99.90;;;;;;21018480;28;20044;-58
2022/06/15 02:42:27;;;;;;;14.73;10.00;;;12.60;99.90;;;;;;20820976;28;20050;-58
2022/06/15 02:52:40;;;;;;;15.82;10.90;;;12.50;99.90;;;;;;20787772;28;20041;-57
2022/06/15 03:02:48;;;;;;;14.18;9.55;;;12.50;99.90;;;;;;20786576;28;20041;-58
2022/06/15 03:12:52;;;;;;;14.70;9.45;;;12.80;99.90;;;;;;20785426;28;20045;-58
2022/06/15 03:22:55;;;;;;;14.45;8.77;;;13.10;99.90;;;;;;20887350;28;20085;-58
2022/06/15 03:33:00;;;;;;;15.50;9.00;;;13.40;99.90;;;;;;20957571;28;20102;-51
2022/06/15 03:43:03;;;;;;;12.02;8.35;;;13.70;99.90;;;;;;20956720;28;20045;-58
2022/06/15 03:53:10;;;;;;;10.70;7.45;;;13.90;99.90;;;;;;20961663;28;20036;-58
2022/06/15 04:03:16;;;;;;;16.08;7.90;;;13.90;99.90;;;;;;21055256;28;20036;-58
2022/06/15 04:13:26;;;;;;;12.02;7.38;;;13.90;99.90;;;;;;21054863;28;20086;-58
2022/06/15 04:23:29;;;;;;;9.68;7.35;;;14.00;99.90;;;;;;21052617;28;20459;-58
2022/06/15 04:33:32;;;;;;;9.43;7.07;;;14.10;99.90;;;;;;20999355;28;20044;-57
2022/06/15 04:43:35;;;;;;;9.82;7.03;;;14.30;99.90;;;;;;20985478;28;20052;-57
2022/06/15 04:53:42;;;;;;;9.05;6.30;;;14.30;99.90;;;;;;20968467;28;20106;-58
2022/06/15 05:03:44;;;;;;;7.72;6.18;;;14.30;99.90;;;;;;20967744;28;20106;-58
2022/06/15 05:13:48;;;;;;;9.07;6.07;;;14.50;99.90;;;;;;21050347;28;20036;-58
2022/06/15 05:23:52;;;;;;;10.13;6.53;;;14.70;99.90;;;;;;21049810;28;20117;-58
2022/06/15 05:34:07;;;;;;;7.50;5.72;;;15.00;99.90;;;;;;21059914;28;20066;-58
2022/06/15 05:54:19;;;;;;;7.40;4.50;;;15.00;99.90;;;;;;21049760;28;20086;-58
2022/06/15 06:04:21;;;;;;;6.53;4.40;;;15.20;99.90;;;;;;20997559;28;20036;-58
2022/06/15 06:14:23;;;;;;;6.00;3.42;;;16.80;99.90;;;;;;20996853;28;20036;-58
2022/06/15 06:24:26;;;;;;;4.65;2.83;;;17.30;99.90;;;;;;20996435;28;20101;-58
2022/06/15 06:34:31;;;;;;;4.50;3.45;;;19.60;99.90;;;;;;21041280;28;20044;-59
2022/06/15 06:44:36;;;;;;;3.63;2.67;;;21.70;99.90;;;;;;21060863;28;20069;-55
2022/06/15 06:54:39;;;;;;;3.70;3.10;;;22.40;99.90;;;;;;21060536;28;20097;-59
2022/06/15 07:04:41;;;;;;;3.85;2.85;;;22.60;98.70;;;;;;21059909;28;20040;-54
2022/06/15 07:14:44;;;;;;;4.07;2.55;;;21.20;99.40;;;;;;20992239;28;20036;-56
2022/06/15 07:24:46;;;;;;;2.13;1.80;;;21.10;99.90;;;;;;20991433;28;20041;-55
2022/06/15 07:34:49;;;;;;;3.42;2.20;;;24.60;98.00;;;;;;20990767;28;20063;-60
2022/06/15 07:44:52;;;;;;;4.25;2.80;;;27.20;93.40;;;;;;20989961;28;20108;-61
2022/06/15 07:54:57;;;;;;;5.53;3.10;;;27.60;92.50;;;;;;20993014;28;20035;-60
2022/06/15 08:04:59;;;;;;;3.20;2.90;;;26.80;92.10;;;;;;21055061;28;20090;-59
2022/06/15 08:15:04;;;;;;;4.25;3.17;;;25.40;93.10;;;;;;21054302;28;20031;-60
2022/06/15 08:25:10;;;;;;;3.78;3.30;;;25.00;95.00;;;;;;21053149;28;20482;-62
2022/06/15 08:35:14;;;;;;;5.45;3.60;;;25.60;94.40;;;;;;21001754;28;20041;-60
2022/06/15 08:45:37;;;;;;;3.78;3.35;;;25.10;94.50;;;;;;20985264;28;20044;-59
2022/06/15 08:55:55;;;;;;;5.57;3.30;;;23.70;95.70;;;;;;20984836;28;20113;-59
2022/06/15 09:06:22;;;;;;;3.70;3.30;;;23.50;95.50;;;;;;20990212;28;20024;-57
2022/06/15 09:16:51;;;;;;;4.45;3.60;;;24.10;96.40;;;;;;21050489;28;20085;-62
2022/06/15 09:27:11;;;;;;;7.22;3.80;;;25.80;95.30;;;;;;21050283;28;20074;-60
2022/06/15 09:37:22;;;;;;;4.68;3.00;;;25.50;92.60;;;;;;21049508;28;20117;-60
2022/06/15 09:48:06;;;;;;;4.88;3.92;;;24.20;94.40;;;;;;21049082;28;20040;-62
2022/06/15 09:58:17;;;;;;;5.78;4.18;;;25.20;94.10;;;;;;21000804;28;20082;-56
2022/06/15 10:08:19;;;;;;;4.60;3.17;;;26.00;93.60;;;;;;20981928;28;20032;-61
2022/06/15 10:18:44;;;;;;;3.47;3.17;;;25.90;93.20;;;;;;20987578;28;20058;-63
2022/06/15 10:28:46;;;;;;;4.65;3.63;;;27.10;93.50;;;;;;20995310;28;20126;-63
2022/06/15 10:38:58;;;;;;;4.55;3.40;;;27.80;91.20;;;;;;21047106;28;20086;-63
2022/06/15 10:49:01;;;;;;;4.35;3.90;;;27.40;92.90;;;;;;21020699;28;20090;-62
2022/06/15 11:09:57;;;;;;;5.70;4.38;;;27.10;91.50;;;;;;20802311;28;20042;-63
2022/06/15 11:20:03;;;;;;;7.07;5.15;;;27.20;92.10;;;;;;20801687;28;20143;-57
2022/06/15 11:30:27;;;;;;;7.40;6.20;;;27.10;92.00;;;;;;20792658;28;20042;-63
2022/06/15 11:40:48;;;;;;;6.60;5.50;;;27.40;91.90;;;;;;20812391;28;20049;-56
2022/06/15 11:51:00;;;;;;;9.23;6.70;;;27.20;90.70;;;;;;20907011;28;20097;-62
2022/06/15 12:01:19;;;;;;;6.90;5.30;;;26.60;91.20;;;;;;20906370;28;20037;-62
2022/06/15 12:22:31;;;;;;;9.55;6.00;;;26.90;92.70;;;;;;20998385;28;20044;-61
2022/06/15 12:32:39;;;;;;;7.15;6.45;;;26.50;93.00;;;;;;21053136;28;20093;-61
2022/06/15 12:42:49;;;;;;;6.50;5.13;;;26.10;92.60;;;;;;21051462;28;20089;-62
2022/06/15 12:52:58;;;;;;;5.43;4.70;;;26.90;93.50;;;;;;21031838;28;20097;-58
2022/06/15 13:03:23;;;;;;;5.30;4.55;;;27.80;92.40;;;;;;20985869;28;20437;-64
2022/06/15 13:13:33;;;;;;;6.40;4.60;;;28.60;91.90;;;;;;20951320;28;20041;-63
2022/06/15 13:23:42;;;;;;;5.85;4.25;;;28.70;90.10;;;;;;20983534;28;20098;-63
2022/06/15 13:33:48;;;;;;;6.55;4.78;;;28.80;90.50;;;;;;21005169;28;20044;-62
2022/06/15 13:43:51;;;;;;;5.00;4.50;;;27.70;90.50;;;;;;21049405;28;20362;-62
2022/06/15 13:54:13;;;;;;;4.85;4.35;;;25.80;92.40;;;;;;21040914;28;20061;-57
2022/06/15 14:04:41;;;;;;;7.93;5.38;;;26.60;92.80;;;;;;21065217;28;20040;-62
2022/06/15 14:15:05;;;;;;;7.57;5.18;;;26.30;91.40;;;;;;20997391;28;20032;-61
2022/06/15 14:25:13;;;;;;;7.90;6.13;;;25.10;92.10;;;;;;20996855;28;20376;-60
2022/06/15 14:35:20;;;;;;;8.38;5.95;;;23.80;93.80;;;;;;20995844;28;20033;-60
2022/06/15 14:45:38;;;;;;;9.23;7.77;;;22.50;95.50;;;;;;20995106;28;20505;-59
2022/06/15 14:55:41;;;;;;;9.18;8.10;;;21.40;95.30;;;;;;21021356;28;20101;-59
2022/06/15 15:05:43;;;;;;;11.57;9.10;;;20.90;97.10;;;;;;21060919;28;20028;-58
2022/06/15 15:15:53;;;;;;;18.73;11.13;;;20.10;99.90;;;;;;21059787;28;20086;-58
2022/06/15 15:25:56;;;;;;;15.20;10.15;;;19.30;99.90;;;;;;21058870;28;20040;-59
2022/06/15 15:36:02;;;;;;;11.50;8.50;;;19.00;99.90;;;;;;21000508;28;20036;-59
2022/06/15 15:46:07;;;;;;;15.18;10.57;;;18.70;99.90;;;;;;20990285;28;20045;-59
2022/06/15 15:56:09;;;;;;;11.35;9.60;;;18.20;99.90;;;;;;20989606;28;20495;-58
2022/06/15 16:06:12;;;;;;;13.15;9.50;;;17.80;99.90;;;;;;20995731;28;20085;-58
2022/06/15 16:16:15;;;;;;;12.48;10.32;;;17.60;99.90;;;;;;21033900;28;20097;-58
2022/06/15 16:26:18;;;;;;;17.85;11.48;;;17.60;99.90;;;;;;21053686;28;20041;-58
2022/06/15 16:36:23;;;;;;;11.93;9.23;;;18.30;99.90;;;;;;21052989;28;20093;-59
2022/06/15 16:46:30;;;;;;;16.95;9.35;;;20.70;99.90;;;;;;21035643;28;20044;-53
2022/06/15 16:56:35;;;;;;;12.57;9.38;;;21.30;99.90;;;;;;21051660;28;20117;-59
2022/06/15 17:06:39;;;;;;;10.60;7.78;;;22.00;99.90;;;;;;21034267;28;20032;-59
2022/06/15 17:16:43;;;;;;;8.98;8.05;;;22.10;99.90;;;;;;21050669;28;20097;-60
2022/06/15 17:26:49;;;;;;;9.52;8.30;;;21.50;99.90;;;;;;21060746;28;20043;-59
2022/06/15 17:36:52;;;;;;;11.70;8.52;;;20.20;99.90;;;;;;21012705;28;20106;-58
2022/06/15 17:46:58;;;;;;;19.73;9.50;;;19.60;99.90;;;;;;21010391;28;20058;-58
2022/06/15 17:57:01;;;;;;;13.63;9.93;;;18.50;99.90;;;;;;20918662;28;20044;-58
2022/06/15 18:07:04;;;;;;;15.27;10.77;;;17.80;99.90;;;;;;20918437;28;20488;-59
2022/06/15 18:17:11;;;;;;;15.57;12.30;;;17.20;99.90;;;;;;20917847;28;20048;-52
2022/06/15 18:27:15;;;;;;;19.70;14.82;;;17.00;99.90;;;;;;20917479;28;20126;-51
2022/06/15 18:37:19;;;;;;;21.27;15.70;;;17.00;99.90;;;;;;21005222;28;20036;-58
2022/06/15 18:47:41;;;;;;;26.15;14.80;;;17.20;99.90;;;;;;21045612;28;20448;-58
2022/06/15 18:57:46;;;;;;;22.45;16.23;;;17.30;99.90;;;;;;21016435;28;20491;-52
2022/06/15 19:07:52;;;;;;;24.23;18.27;;;17.20;99.90;;;;;;20993338;28;20487;-58
2022/06/15 19:17:56;;;;;;;25.73;16.27;;;17.10;99.90;;;;;;20901263;28;20041;-58
2022/06/15 19:27:59;;;;;;;14.57;12.45;;;17.10;99.90;;;;;;20900559;28;20061;-59
2022/06/15 19:38:02;;;;;;;15.77;12.55;;;17.20;99.90;;;;;;20899321;28;20110;-58
2022/06/15 19:48:05;;;;;;;19.67;13.60;;;17.30;99.90;;;;;;20898028;28;20091;-52
2022/06/15 19:58:10;;;;;;;13.85;11.68;;;17.10;99.90;;;;;;20989171;28;20040;-58
2022/06/15 20:08:14;;;;;;;14.20;11.77;;;16.90;99.90;;;;;;21048954;28;20099;-58
2022/06/15 20:18:19;;;;;;;15.88;12.52;;;16.70;99.90;;;;;;20987217;28;20437;-58
2022/06/15 20:28:29;;;;;;;14.38;12.20;;;16.30;99.90;;;;;;20986609;28;20052;-58
2022/06/15 20:38:32;;;;;;;16.48;12.57;;;16.30;99.90;;;;;;20986169;28;20388;-52
2022/06/15 20:48:42;;;;;;;15.52;12.13;;;16.20;99.90;;;;;;20985599;28;20425;-58
2022/06/15 20:58:45;;;;;;;15.77;12.40;;;16.20;99.90;;;;;;21037199;28;20028;-58
2022/06/15 21:08:48;;;;;;;16.20;12.43;;;16.10;99.90;;;;;;21051226;28;20036;-58
2022/06/15 21:18:52;;;;;;;21.42;15.52;;;16.10;99.90;;;;;;21050337;28;20125;-57
2022/06/15 21:28:55;;;;;;;17.40;13.43;;;16.00;99.90;;;;;;21049952;28;20502;-58
2022/06/15 21:38:57;;;;;;;17.88;13.30;;;15.90;99.90;;;;;;20982905;28;20040;-58
2022/06/15 21:49:01;;;;;;;20.15;15.07;;;15.90;99.90;;;;;;20982800;28;20423;-58
2022/06/15 21:59:04;;;;;;;17.05;12.70;;;15.90;99.90;;;;;;20982606;28;20114;-58
2022/06/15 22:09:07;;;;;;;16.25;12.77;;;16.40;99.90;;;;;;21013960;28;20036;-58
2022/06/15 22:19:11;;;;;;;17.70;13.05;;;16.50;99.90;;;;;;21063380;28;20101;-53
2022/06/15 22:29:16;;;;;;;18.17;13.02;;;16.20;99.90;;;;;;21063021;28;20059;-58
2022/06/15 22:39:18;;;;;;;17.65;13.73;;;15.90;99.90;;;;;;21062643;28;20036;-58
2022/06/15 22:59:41;;;;;;;23.65;15.30;;;15.40;99.90;;;;;;20999937;28;20059;-51
2022/06/15 23:09:44;;;;;;;21.40;16.38;;;15.20;99.90;;;;;;20993107;28;20070;-52
2022/06/15 23:19:47;;;;;;;19.70;14.65;;;15.00;99.90;;;;;;20992489;28;20101;-48
2022/06/15 23:29:54;;;;;;;21.55;15.90;;;15.00;99.90;;;;;;20914188;28;20102;-58
2022/06/15 23:39:57;;;;;;;28.60;21.25;;;14.80;99.90;;;;;;20990772;28;20503;-58
2022/06/15 23:49:59;;;;;;;23.30;18.15;;;14.70;99.90;;;;;;20990314;28;20086;-58
